Kent, Texas
Current Conditions -  °F | °C
As of 2:51 PM on Friday 19 Dec 2014 (Local Time) from KGDP Reporting Station
Clear Clear  
Wind Chill: 50°   Ceiling: Unl
Heat Index: 50°   Visibility: 10mi
Dew Point: 32°   Wind: 20mph
Humidity: 50%   Direction: 240°WSW
Pressure: 30.12"   Gusts: 25mph
Location:  31.0833°N, 104.815°W
Report Text: KGDP 192051Z AUTO 24017G22KT 10SM CLR 10/00 A3012 RMK AO2 PK WND 24027/1953 SLP186 T01000000 55020
Loading
Personal Weather Stations






























Interactive Weather Map New forecast layout! Learn more

10-Day Weather Forecast

Advertisements
Track Severe Weather on mobile